sensor_id;sensor_type;location;lat;lon;timestamp;temperature;humidity
66375;DHT22;53173;52.176;5.314;2023-03-20T16:55:03;9.20;99.90
66375;DHT22;53173;52.176;5.314;2023-03-20T16:57:35;9.20;99.90
66375;DHT22;53173;52.176;5.314;2023-03-20T17:00:18;9.20;99.90
66375;DHT22;53173;52.176;5.314;2023-03-20T17:02:50;9.30;99.90
66375;DHT22;53173;52.176;5.314;2023-03-20T17:05:19;9.20;99.90
66375;DHT22;53173;52.176;5.314;2023-03-20T17:07:57;9.40;99.90
66375;DHT22;53173;52.176;5.314;2023-03-20T17:10:28;9.30;99.90
66375;DHT22;53173;52.176;5.314;2023-03-20T17:12:55;9.30;99.90
66375;DHT22;53173;52.176;5.314;2023-03-20T17:15:23;9.40;99.90
66375;DHT22;53173;52.176;5.314;2023-03-20T17:17:50;9.30;99.90
66375;DHT22;53173;52.176;5.314;2023-03-20T17:20:24;9.30;99.90
66375;DHT22;53173;52.176;5.314;2023-03-20T17:22:52;9.40;99.90
66375;DHT22;53173;52.176;5.314;2023-03-20T17:25:20;9.30;99.90
66375;DHT22;53173;52.176;5.314;2023-03-20T17:27:47;9.30;99.90
66375;DHT22;53173;52.176;5.314;2023-03-20T17:30:22;9.40;99.90
66375;DHT22;53173;52.176;5.314;2023-03-20T17:32:52;9.40;99.90
66375;DHT22;53173;52.176;5.314;2023-03-20T17:35:20;9.40;99.90
66375;DHT22;53173;52.176;5.314;2023-03-20T17:37:47;9.40;99.90
66375;DHT22;53173;52.176;5.314;2023-03-20T17:40:20;9.40;99.90
66375;DHT22;53173;52.176;5.314;2023-03-20T17:42:47;9.40;99.90
66375;DHT22;53173;52.176;5.314;2023-03-20T17:45:15;9.40;99.90
66375;DHT22;53173;52.176;5.314;2023-03-20T17:47:47;9.40;99.90
66375;DHT22;53173;52.176;5.314;2023-03-20T17:50:19;9.50;99.90
66375;DHT22;53173;52.176;5.314;2023-03-20T17:52:47;9.40;99.90
66375;DHT22;53173;52.176;5.314;2023-03-20T17:55:14;9.50;99.90
66375;DHT22;53173;52.176;5.314;2023-03-20T17:57:41;9.40;99.90
66375;DHT22;53173;52.176;5.314;2023-03-20T18:00:16;9.40;99.90
66375;DHT22;53173;52.176;5.314;2023-03-20T18:02:43;9.50;99.90
66375;DHT22;53173;52.176;5.314;2023-03-20T18:05:10;9.50;99.90
66375;DHT22;53173;52.176;5.314;2023-03-20T18:07:37;9.50;99.90
66375;DHT22;53173;52.176;5.314;2023-03-20T18:10:05;9.60;99.90
66375;DHT22;53173;52.176;5.314;2023-03-20T18:12:33;9.50;99.90
66375;DHT22;53173;52.176;5.314;2023-03-20T18:15:00;9.50;99.90
66375;DHT22;53173;52.176;5.314;2023-03-20T18:17:27;9.50;99.90
66375;DHT22;53173;52.176;5.314;2023-03-20T18:19:54;9.50;99.90
66375;DHT22;53173;52.176;5.314;2023-03-20T18:22:21;9.50;99.90
66375;DHT22;53173;52.176;5.314;2023-03-20T18:24:48;9.50;99.90
66375;DHT22;53173;52.176;5.314;2023-03-20T18:27:15;9.50;99.90
66375;DHT22;53173;52.176;5.314;2023-03-20T18:29:43;9.50;99.90
66375;DHT22;53173;52.176;5.314;2023-03-20T18:32:09;9.60;99.90
66375;DHT22;53173;52.176;5.314;2023-03-20T18:34:36;9.60;99.90
66375;DHT22;53173;52.176;5.314;2023-03-20T18:37:13;9.60;99.90
66375;DHT22;53173;52.176;5.314;2023-03-20T18:39:40;9.60;99.90
66375;DHT22;53173;52.176;5.314;2023-03-20T18:42:07;9.80;99.90
66375;DHT22;53173;52.176;5.314;2023-03-20T18:44:34;9.60;99.90
66375;DHT22;53173;52.176;5.314;2023-03-20T18:47:00;9.70;99.90
66375;DHT22;53173;52.176;5.314;2023-03-20T18:49:27;9.60;99.90
66375;DHT22;53173;52.176;5.314;2023-03-20T18:51:54;9.60;99.90
66375;DHT22;53173;52.176;5.314;2023-03-20T18:54:21;9.70;99.90
66375;DHT22;53173;52.176;5.314;2023-03-20T18:56:48;9.70;99.90
66375;DHT22;53173;52.176;5.314;2023-03-20T18:59:16;9.70;99.90
66375;DHT22;53173;52.176;5.314;2023-03-20T19:01:44;9.60;99.90
66375;DHT22;53173;52.176;5.314;2023-03-20T19:04:11;9.90;99.90
66375;DHT22;53173;52.176;5.314;2023-03-20T19:06:38;9.70;99.90
66375;DHT22;53173;52.176;5.314;2023-03-20T19:09:05;9.80;99.90
66375;DHT22;53173;52.176;5.314;2023-03-20T19:11:33;9.70;99.90
66375;DHT22;53173;52.176;5.314;2023-03-20T19:14:00;9.90;99.90
66375;DHT22;53173;52.176;5.314;2023-03-20T19:16:32;9.80;99.90
66375;DHT22;53173;52.176;5.314;2023-03-20T19:19:07;9.70;99.90
66375;DHT22;53173;52.176;5.314;2023-03-20T19:21:34;9.90;99.90
66375;DHT22;53173;52.176;5.314;2023-03-20T19:24:03;9.80;99.90
66375;DHT22;53173;52.176;5.314;2023-03-20T19:26:32;9.80;99.90
66375;DHT22;53173;52.176;5.314;2023-03-20T19:29:00;9.80;99.90
66375;DHT22;53173;52.176;5.314;2023-03-20T19:31:28;9.80;99.90
66375;DHT22;53173;52.176;5.314;2023-03-20T19:33:55;9.80;99.90
66375;DHT22;53173;52.176;5.314;2023-03-20T19:38:55;9.80;99.90
66375;DHT22;53173;52.176;5.314;2023-03-20T19:41:24;10.00;99.90
66375;DHT22;53173;52.176;5.314;2023-03-20T19:43:52;10.00;99.90
66375;DHT22;53173;52.176;5.314;2023-03-20T19:46:22;9.90;99.90
66375;DHT22;53173;52.176;5.314;2023-03-20T19:49:16;9.80;99.90
66375;DHT22;53173;52.176;5.314;2023-03-20T19:51:45;10.00;99.90
66375;DHT22;53173;52.176;5.314;2023-03-20T19:54:12;9.90;99.90
66375;DHT22;53173;52.176;5.314;2023-03-20T19:56:38;9.90;99.90
66375;DHT22;53173;52.176;5.314;2023-03-20T19:59:06;9.90;99.90
66375;DHT22;53173;52.176;5.314;2023-03-20T20:01:34;9.90;99.90
66375;DHT22;53173;52.176;5.314;2023-03-20T20:04:06;9.90;99.90
66375;DHT22;53173;52.176;5.314;2023-03-20T20:06:33;9.90;99.90
66375;DHT22;53173;52.176;5.314;2023-03-20T20:09:00;9.90;99.90
66375;DHT22;53173;52.176;5.314;2023-03-20T20:11:30;10.00;99.90
66375;DHT22;53173;52.176;5.314;2023-03-20T20:14:00;9.90;99.90
66375;DHT22;53173;52.176;5.314;2023-03-20T20:16:36;10.00;99.90
66375;DHT22;53173;52.176;5.314;2023-03-20T20:19:07;9.90;99.90
66375;DHT22;53173;52.176;5.314;2023-03-20T20:21:36;9.90;99.90
66375;DHT22;53173;52.176;5.314;2023-03-20T20:24:22;9.90;99.90
66375;DHT22;53173;52.176;5.314;2023-03-20T20:26:52;10.10;99.90
66375;DHT22;53173;52.176;5.314;2023-03-20T20:29:33;10.00;99.90
66375;DHT22;53173;52.176;5.314;2023-03-20T20:32:00;10.00;99.90
66375;DHT22;53173;52.176;5.314;2023-03-20T20:34:27;10.00;99.90
66375;DHT22;53173;52.176;5.314;2023-03-20T20:37:16;10.00;99.90
66375;DHT22;53173;52.176;5.314;2023-03-20T20:40:03;10.00;99.90
66375;DHT22;53173;52.176;5.314;2023-03-20T20:42:30;10.00;99.90
66375;DHT22;53173;52.176;5.314;2023-03-20T20:44:58;10.10;99.90
66375;DHT22;53173;52.176;5.314;2023-03-20T20:47:25;10.00;99.90
66375;DHT22;53173;52.176;5.314;2023-03-20T20:49:52;10.00;99.90
66375;DHT22;53173;52.176;5.314;2023-03-20T20:52:19;9.90;99.90
66375;DHT22;53173;52.176;5.314;2023-03-20T20:54:46;10.00;99.90
66375;DHT22;53173;52.176;5.314;2023-03-20T20:57:14;10.00;99.90
66375;DHT22;53173;52.176;5.314;2023-03-20T20:59:41;10.30;99.90
66375;DHT22;53173;52.176;5.314;2023-03-20T21:02:09;9.90;99.90
66375;DHT22;53173;52.176;5.314;2023-03-20T21:04:41;10.00;99.90
66375;DHT22;53173;52.176;5.314;2023-03-20T21:07:09;10.00;99.90
66375;DHT22;53173;52.176;5.314;2023-03-20T21:09:38;10.00;99.90
66375;DHT22;53173;52.176;5.314;2023-03-20T21:12:07;10.00;99.90
66375;DHT22;53173;52.176;5.314;2023-03-20T21:14:36;10.00;99.90
66375;DHT22;53173;52.176;5.314;2023-03-20T21:17:04;10.00;99.90
66375;DHT22;53173;52.176;5.314;2023-03-20T21:19:34;10.00;99.90
66375;DHT22;53173;52.176;5.314;2023-03-20T21:22:04;10.00;99.90
66375;DHT22;53173;52.176;5.314;2023-03-20T21:24:31;10.00;99.90
66375;DHT22;53173;52.176;5.314;2023-03-20T21:27:04;10.00;99.90
66375;DHT22;53173;52.176;5.314;2023-03-20T21:29:32;10.10;99.90
66375;DHT22;53173;52.176;5.314;2023-03-20T21:31:59;10.00;99.90
66375;DHT22;53173;52.176;5.314;2023-03-20T21:34:27;10.00;99.90
66375;DHT22;53173;52.176;5.314;2023-03-20T21:36:55;10.10;99.90
66375;DHT22;53173;52.176;5.314;2023-03-20T21:39:25;10.10;99.90
66375;DHT22;53173;52.176;5.314;2023-03-20T21:41:54;10.00;99.90
66375;DHT22;53173;52.176;5.314;2023-03-20T21:44:21;9.90;99.90
66375;DHT22;53173;52.176;5.314;2023-03-20T21:47:08;10.00;99.90
66375;DHT22;53173;52.176;5.314;2023-03-20T21:49:55;10.10;99.90
66375;DHT22;53173;52.176;5.314;2023-03-20T21:52:42;10.00;99.90
66375;DHT22;53173;52.176;5.314;2023-03-20T21:55:29;10.10;99.90
